createdAt,value
2022-08-17T00:00:34.570Z,6.30
2022-08-17T00:03:13.570Z,8.90
2022-08-17T00:06:11.374Z,7.80
2022-08-17T00:08:44.252Z,6.10
2022-08-17T00:11:19.246Z,9.00
2022-08-17T00:13:51.688Z,13.50
2022-08-17T00:16:56.081Z,6.80
2022-08-17T00:19:25.666Z,5.90
2022-08-17T00:22:32.214Z,5.10
2022-08-17T00:24:44.079Z,6.00
2022-08-17T00:27:11.009Z,5.20
2022-08-17T00:29:37.828Z,5.70
2022-08-17T00:33:14.414Z,5.20
2022-08-17T00:34:52.249Z,6.50
2022-08-17T00:37:19.113Z,6.30
2022-08-17T00:39:45.989Z,8.90
2022-08-17T00:42:18.141Z,7.30
2022-08-17T00:44:45.111Z,7.00
2022-08-17T00:47:12.847Z,6.70
2022-08-17T00:49:40.138Z,5.90
2022-08-17T00:52:19.992Z,5.80
2022-08-17T00:54:51.612Z,7.20
2022-08-17T00:57:29.369Z,7.10
2022-08-17T01:00:05.308Z,7.00
2022-08-17T01:02:41.736Z,6.90
2022-08-17T01:05:18.562Z,5.30
2022-08-17T01:07:48.361Z,8.00
2022-08-17T01:10:59.967Z,5.80
2022-08-17T01:13:06.751Z,9.80
2022-08-17T01:15:42.233Z,7.20
2022-08-17T01:18:14.043Z,6.00
2022-08-17T01:20:48.742Z,6.50
2022-08-17T01:23:20.715Z,6.00
2022-08-17T01:25:55.823Z,5.90
2022-08-17T01:28:52.663Z,6.10
2022-08-17T01:31:12.331Z,9.20
2022-08-17T01:33:39.301Z,7.00
2022-08-17T01:36:07.851Z,5.50
2022-08-17T01:38:37.307Z,6.80
2022-08-17T01:41:13.166Z,6.50
2022-08-17T01:43:58.493Z,6.90
2022-08-17T01:46:33.956Z,7.30
2022-08-17T01:49:04.878Z,6.50
2022-08-17T01:51:33.183Z,7.50
2022-08-17T01:54:05.350Z,7.90
2022-08-17T01:56:34.700Z,7.60
2022-08-17T01:59:02.356Z,8.40
2022-08-17T02:01:33.018Z,8.60
2022-08-17T02:04:01.915Z,10.10
2022-08-17T02:06:52.959Z,8.70
2022-08-17T02:09:26.275Z,8.80
2022-08-17T02:12:00.149Z,9.70
2022-08-17T02:14:46.950Z,7.90
2022-08-17T02:17:13.803Z,7.70
2022-08-17T02:19:41.292Z,9.70
2022-08-17T02:22:08.739Z,8.50
2022-08-17T02:24:59.933Z,6.70
2022-08-17T02:27:25.304Z,8.30
2022-08-17T02:29:52.263Z,6.50
2022-08-17T02:32:27.513Z,7.50
2022-08-17T02:34:57.461Z,8.70
2022-08-17T02:37:30.250Z,7.10
2022-08-17T02:42:46.099Z,8.20
2022-08-17T02:45:18.001Z,7.70
2022-08-17T02:47:45.408Z,10.30
2022-08-17T02:50:15.487Z,11.10
2022-08-17T02:52:44.310Z,7.40
2022-08-17T02:55:27.506Z,7.80
2022-08-17T02:57:55.049Z,9.30
2022-08-17T03:00:33.421Z,8.40
2022-08-17T03:03:02.216Z,8.60
2022-08-17T03:05:32.832Z,10.70
2022-08-17T03:08:00.489Z,8.10
2022-08-17T03:10:27.637Z,7.90
2022-08-17T03:12:55.043Z,8.90
2022-08-17T03:15:27.216Z,9.30
2022-08-17T03:17:56.102Z,10.70
2022-08-17T03:20:24.301Z,8.20
2022-08-17T03:22:55.916Z,8.20
2022-08-17T03:25:35.276Z,9.60
2022-08-17T03:28:04.105Z,7.90
2022-08-17T03:30:31.558Z,8.30
2022-08-17T03:33:02.980Z,10.80
2022-08-17T03:35:33.427Z,9.80
2022-08-17T03:38:01.423Z,7.00
2022-08-17T03:40:55.875Z,7.70
2022-08-17T03:43:19.517Z,8.80
2022-08-17T03:46:04.940Z,9.20
2022-08-17T03:48:51.413Z,9.50
2022-08-17T03:51:42.417Z,6.70
2022-08-17T03:54:29.260Z,6.80
2022-08-17T03:57:01.665Z,7.20
2022-08-17T03:59:29.004Z,8.90
2022-08-17T04:02:00.888Z,8.90
2022-08-17T04:04:28.052Z,8.40
2022-08-17T04:06:55.281Z,7.50
2022-08-17T04:09:22.152Z,7.80
2022-08-17T04:11:49.029Z,8.20
2022-08-17T04:14:15.871Z,5.90
2022-08-17T04:16:42.698Z,6.20
2022-08-17T04:19:09.524Z,6.60
2022-08-17T04:21:36.515Z,6.80
2022-08-17T04:24:05.115Z,10.90
2022-08-17T04:26:53.313Z,6.40
2022-08-17T04:29:19.395Z,6.60
2022-08-17T04:31:46.554Z,9.60
2022-08-17T04:34:13.438Z,10.90
2022-08-17T04:36:40.232Z,9.10
2022-08-17T04:39:17.315Z,7.90
2022-08-17T04:42:02.754Z,10.50
2022-08-17T04:44:37.375Z,6.80
2022-08-17T04:47:06.532Z,8.00
2022-08-17T04:49:34.508Z,5.80
2022-08-17T04:52:04.544Z,7.70
2022-08-17T04:54:31.960Z,7.30
2022-08-17T04:56:58.830Z,8.50
2022-08-17T04:59:25.637Z,9.30
2022-08-17T05:01:52.468Z,8.70
2022-08-17T05:04:33.626Z,8.90
2022-08-17T05:07:03.913Z,8.20
2022-08-17T05:09:31.246Z,8.60
2022-08-17T05:12:01.948Z,22.30
2022-08-17T05:14:33.308Z,17.70
2022-08-17T05:17:01.529Z,14.20
2022-08-17T05:19:31.493Z,9.10
2022-08-17T05:21:58.285Z,7.00
2022-08-17T05:24:40.731Z,7.30
2022-08-17T05:27:18.758Z,9.60
2022-08-17T05:29:46.143Z,9.50
2022-08-17T05:32:39.220Z,9.50
2022-08-17T05:35:00.863Z,7.90
2022-08-17T05:37:28.153Z,10.60
2022-08-17T05:39:55.046Z,8.50
2022-08-17T05:42:22.201Z,7.20
2022-08-17T05:44:49.301Z,10.00
2022-08-17T05:47:17.640Z,10.90
2022-08-17T05:49:44.908Z,10.60
2022-08-17T05:52:43.234Z,12.10
2022-08-17T05:55:24.090Z,9.60
2022-08-17T05:58:04.318Z,10.60
2022-08-17T06:01:01.630Z,15.30
2022-08-17T06:04:05.761Z,11.70
2022-08-17T06:07:01.237Z,8.50
2022-08-17T06:10:06.877Z,13.40
2022-08-17T06:12:48.104Z,11.00
2022-08-17T06:15:39.664Z,10.90
2022-08-17T06:18:10.128Z,8.80
2022-08-17T06:20:58.391Z,10.40
2022-08-17T06:23:58.801Z,10.20
2022-08-17T06:26:38.470Z,8.40
2022-08-17T06:29:29.670Z,8.80
2022-08-17T06:31:57.049Z,9.50
2022-08-17T06:34:23.990Z,8.90
2022-08-17T06:37:04.918Z,8.50
2022-08-17T06:39:53.180Z,7.90
2022-08-17T06:42:59.888Z,7.30
2022-08-17T06:46:10.881Z,9.20
2022-08-17T06:48:51.761Z,6.30
2022-08-17T06:51:39.783Z,8.20
2022-08-17T06:54:38.861Z,10.50
2022-08-17T06:57:25.904Z,9.90
2022-08-17T07:00:01.216Z,9.10
2022-08-17T07:02:56.296Z,9.60
2022-08-17T07:06:17.640Z,7.70
2022-08-17T07:09:05.974Z,8.20
2022-08-17T07:11:58.341Z,10.00
2022-08-17T07:14:52.704Z,10.90
2022-08-17T07:17:46.522Z,8.50
2022-08-17T07:20:15.035Z,9.50
2022-08-17T07:23:04.077Z,8.60
2022-08-17T07:25:30.973Z,7.90
2022-08-17T07:28:06.835Z,6.90
2022-08-17T07:30:46.886Z,7.00
2022-08-17T07:33:26.894Z,8.10
2022-08-17T07:35:56.699Z,8.10
2022-08-17T07:38:34.847Z,7.60
2022-08-17T07:41:08.333Z,7.00
2022-08-17T07:43:40.656Z,9.00
2022-08-17T07:46:45.761Z,5.40
2022-08-17T07:49:12.504Z,7.70
2022-08-17T07:51:41.977Z,9.60
2022-08-17T07:54:15.049Z,6.00
2022-08-17T07:56:59.921Z,6.80
2022-08-17T07:59:34.057Z,7.40
2022-08-17T08:02:05.615Z,7.10
2022-08-17T08:05:06.763Z,5.30
2022-08-17T08:07:59.493Z,4.90
2022-08-17T08:10:35.052Z,6.30
2022-08-17T08:13:20.123Z,7.70
2022-08-17T08:15:54.034Z,8.10
2022-08-17T08:18:53.773Z,6.20
2022-08-17T08:21:51.557Z,5.80
2022-08-17T08:24:40.098Z,5.20
2022-08-17T08:27:26.665Z,5.40
2022-08-17T08:30:23.201Z,6.70
2022-08-17T08:33:07.044Z,9.00
2022-08-17T08:35:43.810Z,5.30
2022-08-17T08:38:41.992Z,7.00
2022-08-17T08:41:37.988Z,8.60
2022-08-17T08:45:04.254Z,6.70
2022-08-17T08:47:53.313Z,6.90
2022-08-17T08:50:39.798Z,5.70
2022-08-17T08:53:35.659Z,8.40
2022-08-17T08:56:23.141Z,7.90
2022-08-17T08:58:58.775Z,9.80
2022-08-17T09:01:42.337Z,7.50
2022-08-17T09:05:10.389Z,12.30
2022-08-17T09:07:42.269Z,11.20
2022-08-17T09:10:57.764Z,7.70
2022-08-17T09:13:27.160Z,8.80
2022-08-17T09:16:06.310Z,8.40
2022-08-17T09:19:00.554Z,8.10
2022-08-17T09:21:54.948Z,9.40
2022-08-17T09:24:43.115Z,10.40
2022-08-17T09:27:47.442Z,10.20
2022-08-17T09:30:14.373Z,8.50
2022-08-17T09:32:49.250Z,9.40
2022-08-17T09:35:32.806Z,10.90
2022-08-17T09:38:12.757Z,9.00
2022-08-17T09:41:19.063Z,10.40
2022-08-17T09:44:31.710Z,9.60
2022-08-17T09:47:12.631Z,9.50
2022-08-17T09:49:50.416Z,11.00
2022-08-17T09:52:27.809Z,12.60
2022-08-17T09:54:57.589Z,13.30
2022-08-17T09:58:04.635Z,10.60
2022-08-17T10:00:43.853Z,14.60
2022-08-17T10:03:25.460Z,11.00
2022-08-17T10:06:12.852Z,12.50
2022-08-17T10:09:07.533Z,10.00
2022-08-17T10:12:23.146Z,9.00
2022-08-17T10:15:12.944Z,15.30
2022-08-17T10:17:55.025Z,10.20
2022-08-17T10:20:30.314Z,9.60
2022-08-17T10:23:34.700Z,9.90
2022-08-17T10:26:24.345Z,10.70
2022-08-17T10:29:03.761Z,9.80
2022-08-17T10:31:46.051Z,11.60
2022-08-17T10:34:45.094Z,8.50
2022-08-17T10:37:30.387Z,7.80
2022-08-17T10:40:31.761Z,10.90
2022-08-17T10:43:44.033Z,9.20
2022-08-17T10:47:10.772Z,9.00
2022-08-17T10:49:46.997Z,11.10
2022-08-17T10:52:19.640Z,11.90
2022-08-17T10:55:05.452Z,7.10
2022-08-17T10:57:36.322Z,9.00
2022-08-17T11:00:34.612Z,7.70
2022-08-17T11:03:07.352Z,9.90
2022-08-17T11:06:04.916Z,9.80
2022-08-17T11:08:43.581Z,6.60
2022-08-17T11:11:38.462Z,7.80
2022-08-17T11:14:28.583Z,8.50
2022-08-17T11:17:19.613Z,10.10
2022-08-17T11:20:23.241Z,7.60
2022-08-17T11:23:32.044Z,7.20
2022-08-17T11:26:07.986Z,7.50
2022-08-17T11:28:50.359Z,9.00
2022-08-17T11:31:38.487Z,10.50
2022-08-17T11:34:25.758Z,8.20
2022-08-17T11:37:17.225Z,9.20
2022-08-17T11:40:09.245Z,11.60
2022-08-17T11:42:42.004Z,10.70
2022-08-17T11:45:35.253Z,9.60
2022-08-17T11:48:40.035Z,10.90
2022-08-17T11:51:35.574Z,6.00
2022-08-17T11:56:52.907Z,6.50
2022-08-17T11:59:43.056Z,9.10
2022-08-17T12:02:32.400Z,8.10
2022-08-17T12:05:01.831Z,10.30
2022-08-17T12:07:32.452Z,7.90
2022-08-17T12:10:00.675Z,6.60
2022-08-17T12:12:35.165Z,9.00
2022-08-17T12:15:10.708Z,8.80
2022-08-17T12:17:51.925Z,10.00
2022-08-17T12:20:39.999Z,7.30
2022-08-17T12:23:15.557Z,12.20
2022-08-17T12:25:58.781Z,10.40
2022-08-17T12:28:30.318Z,7.40
2022-08-17T12:31:11.169Z,10.00
2022-08-17T12:33:45.480Z,6.60
2022-08-17T12:36:20.881Z,9.10
2022-08-17T12:39:14.214Z,10.50
2022-08-17T12:41:47.371Z,10.20
2022-08-17T12:44:31.475Z,9.70
2022-08-17T12:47:21.982Z,9.80
2022-08-17T12:50:03.432Z,8.10
2022-08-17T12:52:32.436Z,7.30
2022-08-17T12:55:01.276Z,8.40
2022-08-17T12:57:43.330Z,7.50
2022-08-17T13:00:21.572Z,9.20
2022-08-17T13:02:52.880Z,13.30
2022-08-17T13:05:37.871Z,9.60
2022-08-17T13:08:34.932Z,7.60
2022-08-17T13:11:18.995Z,8.30
2022-08-17T13:13:55.500Z,8.20
2022-08-17T13:16:30.361Z,8.20
2022-08-17T13:19:15.306Z,9.60
2022-08-17T13:21:49.409Z,8.60
2022-08-17T13:24:23.523Z,6.30
2022-08-17T13:27:07.980Z,9.10
2022-08-17T13:29:59.932Z,9.40
2022-08-17T13:32:44.098Z,12.30
2022-08-17T13:35:50.117Z,6.50
2022-08-17T13:38:49.076Z,11.00
2022-08-17T13:41:37.295Z,8.00
2022-08-17T13:44:34.558Z,8.20
2022-08-17T13:47:03.945Z,9.60
2022-08-17T13:49:48.659Z,9.60
2022-08-17T13:52:42.556Z,7.80
2022-08-17T13:55:22.141Z,11.70
2022-08-17T13:58:03.639Z,7.70
2022-08-17T14:00:36.139Z,8.10
2022-08-17T14:03:04.598Z,11.00
2022-08-17T14:05:33.288Z,10.90
2022-08-17T14:10:35.841Z,11.80
2022-08-17T14:13:03.515Z,10.60
2022-08-17T14:15:55.078Z,12.00
2022-08-17T14:18:55.405Z,8.90
2022-08-17T14:21:07.824Z,9.60
2022-08-17T14:23:36.557Z,9.50
2022-08-17T14:26:04.226Z,14.70
2022-08-17T14:28:31.041Z,11.20
2022-08-17T14:31:00.562Z,11.10
2022-08-17T14:33:28.480Z,8.70
2022-08-17T14:35:56.994Z,14.00
2022-08-17T14:38:24.116Z,11.00
2022-08-17T14:40:51.464Z,11.50
2022-08-17T14:43:19.770Z,10.90
2022-08-17T14:45:46.666Z,10.30
2022-08-17T14:48:13.568Z,9.50
2022-08-17T14:50:42.895Z,12.70
2022-08-17T14:53:13.541Z,11.40
2022-08-17T14:55:40.689Z,10.90
2022-08-17T14:58:08.389Z,14.80
2022-08-17T15:00:38.866Z,12.10
2022-08-17T15:03:05.703Z,11.00
2022-08-17T15:05:35.969Z,12.50
2022-08-17T15:08:04.886Z,13.20
2022-08-17T15:10:32.659Z,10.30
2022-08-17T15:12:59.797Z,12.00
2022-08-17T15:15:27.435Z,11.00
2022-08-17T15:17:54.280Z,11.30
2022-08-17T15:20:27.210Z,11.60
2022-08-17T15:22:55.543Z,10.70
2022-08-17T15:25:25.352Z,12.70
2022-08-17T15:27:53.236Z,11.50
2022-08-17T15:30:20.659Z,11.00
2022-08-17T15:32:54.583Z,11.10
2022-08-17T15:35:28.941Z,11.70
2022-08-17T15:38:03.392Z,11.90
2022-08-17T15:40:39.825Z,7.80
2022-08-17T15:43:10.890Z,8.40
2022-08-17T15:45:38.683Z,10.40
2022-08-17T15:48:05.588Z,11.50
2022-08-17T15:50:32.520Z,12.10
2022-08-17T15:53:01.626Z,9.70
2022-08-17T15:55:30.577Z,10.50
2022-08-17T15:57:57.847Z,10.10
2022-08-17T16:00:25.524Z,12.60
2022-08-17T16:03:44.451Z,10.10
2022-08-17T16:05:41.055Z,10.40
2022-08-17T16:08:10.348Z,7.10
2022-08-17T16:10:37.532Z,8.90
2022-08-17T16:13:04.523Z,8.50
2022-08-17T16:15:31.919Z,7.60
2022-08-17T16:17:59.205Z,9.80
2022-08-17T16:20:26.786Z,9.40
2022-08-17T16:22:54.972Z,10.50
2022-08-17T16:25:38.281Z,7.90
2022-08-17T16:28:16.300Z,10.90
2022-08-17T16:30:43.704Z,8.90
2022-08-17T16:33:11.710Z,7.60
2022-08-17T16:35:39.263Z,10.00
2022-08-17T16:38:07.119Z,8.60
2022-08-17T16:40:35.837Z,8.30
2022-08-17T16:43:11.433Z,7.80
2022-08-17T16:45:39.678Z,8.70
2022-08-17T16:48:08.845Z,7.70
2022-08-17T16:50:36.357Z,11.60
2022-08-17T16:53:16.597Z,8.10
2022-08-17T16:55:46.068Z,11.30
2022-08-17T16:58:14.742Z,8.30
2022-08-17T17:00:44.458Z,8.80
2022-08-17T17:03:19.033Z,9.30
2022-08-17T17:06:18.721Z,19.50
2022-08-17T17:08:51.158Z,9.20
2022-08-17T17:11:30.648Z,9.80
2022-08-17T17:14:01.448Z,7.80
2022-08-17T17:16:28.172Z,7.50
2022-08-17T17:18:59.443Z,8.90
2022-08-17T17:21:37.264Z,8.90
2022-08-17T17:24:11.771Z,8.60
2022-08-17T17:27:18.021Z,7.60
2022-08-17T17:30:07.082Z,11.40
2022-08-17T17:32:55.641Z,7.50
2022-08-17T17:35:33.932Z,12.40
2022-08-17T17:38:12.197Z,10.80
2022-08-17T17:40:47.033Z,17.30
2022-08-17T17:43:37.690Z,14.30
2022-08-17T17:46:28.568Z,10.40
2022-08-17T17:48:59.985Z,9.00
2022-08-17T17:52:06.859Z,11.10
2022-08-17T17:54:59.711Z,9.80
2022-08-17T17:58:04.883Z,11.40
2022-08-17T18:01:23.872Z,8.80
2022-08-17T18:04:08.878Z,9.10
2022-08-17T18:07:06.699Z,9.00
2022-08-17T18:10:03.234Z,9.70
2022-08-17T18:12:59.627Z,13.40
2022-08-17T18:15:50.390Z,14.20
2022-08-17T18:18:17.117Z,11.10
2022-08-17T18:20:54.069Z,11.30
2022-08-17T18:23:28.148Z,10.20
2022-08-17T18:25:58.030Z,12.50
2022-08-17T18:28:40.490Z,11.00
2022-08-17T18:31:19.502Z,13.70
2022-08-17T18:33:51.836Z,9.90
2022-08-17T18:36:39.199Z,11.60
2022-08-17T18:39:29.152Z,9.50
2022-08-17T18:41:59.849Z,10.40
2022-08-17T18:44:39.915Z,10.10
2022-08-17T18:47:28.750Z,9.00
2022-08-17T18:50:24.903Z,12.60
2022-08-17T18:52:54.548Z,12.90
2022-08-17T18:55:30.692Z,13.50
2022-08-17T18:58:15.417Z,10.60
2022-08-17T19:00:46.797Z,11.70
2022-08-17T19:03:17.265Z,15.10
2022-08-17T19:05:56.326Z,11.40
2022-08-17T19:08:29.163Z,11.40
2022-08-17T19:11:18.350Z,11.60
2022-08-17T19:13:54.624Z,9.40
2022-08-17T19:16:29.489Z,11.50
2022-08-17T19:19:22.749Z,10.30
2022-08-17T19:22:02.709Z,10.30
2022-08-17T19:24:33.700Z,10.80
2022-08-17T19:27:25.726Z,12.80
2022-08-17T19:30:10.835Z,10.50
2022-08-17T19:32:38.067Z,11.30
2022-08-17T19:35:15.023Z,9.90
2022-08-17T19:37:50.908Z,10.20
2022-08-17T19:40:52.983Z,10.50
2022-08-17T19:43:47.457Z,10.80
2022-08-17T19:46:14.241Z,11.50
2022-08-17T19:49:41.011Z,12.00
2022-08-17T19:52:56.662Z,11.50
2022-08-17T19:56:11.568Z,11.50
2022-08-17T19:59:07.929Z,12.20
2022-08-17T20:02:11.092Z,13.90
2022-08-17T20:04:44.556Z,12.50
2022-08-17T20:07:53.963Z,12.50
2022-08-17T20:10:44.925Z,15.50
2022-08-17T20:13:33.516Z,10.80
2022-08-17T20:16:03.070Z,12.10
2022-08-17T20:18:32.842Z,10.30
2022-08-17T20:21:26.199Z,11.40
2022-08-17T20:24:28.508Z,10.00
2022-08-17T20:27:00.985Z,9.70
2022-08-17T20:29:54.472Z,9.60
2022-08-17T20:32:28.999Z,9.70
2022-08-17T20:35:29.802Z,12.20
2022-08-17T20:38:06.022Z,11.70
2022-08-17T20:40:56.790Z,10.00
2022-08-17T20:43:32.548Z,9.70
2022-08-17T20:46:35.858Z,12.60
2022-08-17T20:52:15.996Z,10.30
2022-08-17T20:54:52.256Z,11.20
2022-08-17T20:57:31.424Z,12.40
2022-08-17T21:00:00.369Z,11.10
2022-08-17T21:02:28.890Z,9.20
2022-08-17T21:04:56.324Z,11.80
2022-08-17T21:07:48.040Z,9.50
2022-08-17T21:10:33.637Z,10.00
2022-08-17T21:13:37.764Z,9.90
2022-08-17T21:16:42.349Z,10.10
2022-08-17T21:20:09.746Z,10.20
2022-08-17T21:22:59.674Z,11.80
2022-08-17T21:25:41.821Z,13.80
2022-08-17T21:29:00.603Z,11.30
2022-08-17T21:31:33.185Z,12.60
2022-08-17T21:34:26.768Z,11.20
2022-08-17T21:36:56.159Z,10.20
2022-08-17T21:39:39.722Z,12.70
2022-08-17T21:42:07.542Z,12.40
2022-08-17T21:44:46.839Z,13.00
2022-08-17T21:47:24.933Z,12.60
2022-08-17T21:49:55.108Z,11.40
2022-08-17T21:52:26.314Z,11.70
2022-08-17T21:55:01.888Z,12.80
2022-08-17T21:57:31.277Z,13.30
2022-08-17T22:00:15.133Z,12.30
2022-08-17T22:02:42.850Z,11.00
2022-08-17T22:05:14.021Z,12.30
2022-08-17T22:08:01.569Z,13.30
2022-08-17T22:10:33.853Z,13.60
2022-08-17T22:13:16.826Z,11.50
2022-08-17T22:15:48.424Z,15.10
2022-08-17T22:18:28.256Z,16.30
2022-08-17T22:20:58.662Z,12.10
2022-08-17T22:23:52.893Z,14.20
2022-08-17T22:26:24.107Z,13.40
2022-08-17T22:28:57.891Z,14.80
2022-08-17T22:31:28.981Z,13.10
2022-08-17T22:34:01.257Z,13.20
2022-08-17T22:36:38.427Z,12.40
2022-08-17T22:39:07.945Z,15.50
2022-08-17T22:42:00.192Z,15.90
2022-08-17T22:44:47.317Z,14.70
2022-08-17T22:47:14.040Z,14.50
2022-08-17T22:49:53.753Z,12.60
2022-08-17T22:52:32.383Z,13.00
2022-08-17T22:55:35.431Z,12.10
2022-08-17T22:58:28.510Z,14.30
2022-08-17T23:00:55.665Z,13.00
2022-08-17T23:03:27.363Z,15.30
2022-08-17T23:06:10.400Z,12.50
2022-08-17T23:11:36.797Z,12.00
2022-08-17T23:14:13.935Z,11.90
2022-08-17T23:16:42.008Z,12.10
2022-08-17T23:19:15.145Z,12.20
2022-08-17T23:21:46.490Z,10.50
2022-08-17T23:24:21.745Z,14.70
2022-08-17T23:26:49.080Z,13.50
2022-08-17T23:29:15.958Z,11.90
2022-08-17T23:31:42.909Z,11.60
2022-08-17T23:34:12.811Z,10.10
2022-08-17T23:36:39.834Z,11.40
2022-08-17T23:39:07.209Z,13.50
2022-08-17T23:41:39.374Z,13.10
2022-08-17T23:44:06.684Z,11.00
2022-08-17T23:46:34.009Z,11.00
2022-08-17T23:49:01.187Z,12.40
2022-08-17T23:51:37.674Z,12.60
2022-08-17T23:54:27.692Z,11.40
2022-08-17T23:56:54.696Z,12.30
2022-08-17T23:59:22.907Z,12.40
